Time;durP1;ratioP1;P1;durP2;ratioP2;P2;SDS_P1;SDS_P2;PMS_P1;PMS_P2;Temp;Humidity;BMP_temperature;BMP_pressure;BME280_temperature;BME280_humidity;BME280_pressure;Samples;Min_cycle;Max_cycle;Signal;HPM_P1;HPM_P2
2023/05/19 00:00:54;;;;;;;;;;;;;;;17.77;66.13;101059.81;5088336;28;20551;-85
2023/05/19 00:03:20;;;;;;;;;;;;;;;17.75;66.11;101063.28;5072046;28;20018;-85
2023/05/19 00:05:45;;;;;;;;;;;;;;;17.75;66.12;101069.44;5088596;28;19922;-85
2023/05/19 00:08:11;;;;;;;;;;;;;;;17.78;66.10;101068.63;5063967;28;19912;-85
2023/05/19 00:10:37;;;;;;;;;;;;;;;17.77;65.97;101067.75;5065699;28;20377;-84
2023/05/19 00:13:02;;;;;;;;;;;;;;;17.79;65.80;101070.44;5064318;28;20404;-84
2023/05/19 00:15:28;;;;;;;;;;;;;;;17.79;65.94;101073.09;5066888;28;19939;-85
2023/05/19 00:17:54;;;;;;;;;;;;;;;17.84;65.80;101084.69;5087531;28;19916;-83
2023/05/19 00:20:20;;;;;;;;;;;;;;;17.95;65.38;101087.66;5051773;28;21453;-85
2023/05/19 00:22:45;;;;;;;;;;;;;;;17.95;65.67;101087.66;5072360;28;19923;-84
2023/05/19 00:25:11;;;;;;;;;;;;;;;17.92;65.61;101090.22;5070099;28;19916;-84
2023/05/19 00:27:36;;;;;;;;;;;;;;;17.92;65.94;101091.09;5090802;28;19986;-85
2023/05/19 00:30:01;;;;;;;;;;;;;;;17.92;65.84;101087.56;5072878;28;19924;-85
2023/05/19 00:32:27;;;;;;;;;;;;;;;17.91;65.99;101084.06;5072389;28;20549;-85
2023/05/19 00:34:52;;;;;;;;;;;;;;;17.88;65.92;101087.47;5090630;28;20369;-85
2023/05/19 00:37:18;;;;;;;;;;;;;;;17.87;65.95;101088.34;5066973;28;20420;-86
2023/05/19 00:39:43;;;;;;;;;;;;;;;17.83;65.95;101094.38;5083873;28;19912;-85
2023/05/19 00:42:09;;;;;;;;;;;;;;;17.85;65.78;101094.44;5089031;28;20046;-84
2023/05/19 00:44:36;;;;;;;;;;;;;;;17.89;65.77;101099.84;5052941;28;19923;-85
2023/05/19 00:47:02;;;;;;;;;;;;;;;17.88;65.82;101095.41;5072430;28;19916;-85
2023/05/19 00:49:27;;;;;;;;;;;;;;;17.83;66.03;101097.03;5082562;28;19924;-84
2023/05/19 00:51:52;;;;;;;;;;;;;;;17.80;65.76;101091.63;5058813;28;19926;-85
2023/05/19 00:54:18;;;;;;;;;;;;;;;17.78;65.79;101098.59;5075592;28;19944;-84
2023/05/19 00:56:43;;;;;;;;;;;;;;;17.74;65.71;101086.16;5076252;28;20407;-84
2023/05/19 00:59:09;;;;;;;;;;;;;;;17.75;65.69;101081.75;5064828;28;19916;-84
2023/05/19 01:01:35;;;;;;;;;;;;;;;17.78;65.76;101084.47;5058692;28;20499;-85
2023/05/19 01:04:00;;;;;;;;;;;;;;;17.78;65.50;101085.41;5085988;28;19971;-85
2023/05/19 01:06:26;;;;;;;;;;;;;;;17.77;65.60;101080.06;5070733;28;19959;-85
2023/05/19 01:08:52;;;;;;;;;;;;;;;17.70;65.67;101093.09;5094623;28;19923;-85
2023/05/19 01:11:18;;;;;;;;;;;;;;;17.67;65.70;101087.72;5071707;28;19916;-85
2023/05/19 01:13:43;;;;;;;;;;;;;;;17.69;65.81;101086.03;5075749;28;19947;-84
2023/05/19 01:16:11;;;;;;;;;;;;;;;17.69;65.68;101095.66;5074724;28;20317;-85
2023/05/19 01:18:38;;;;;;;;;;;;;;;17.73;65.77;101091.38;5093627;28;19923;-84
2023/05/19 01:21:22;;;;;;;;;;;;;;;17.72;65.54;101101.06;5067285;28;20305;-85
2023/05/19 01:23:48;;;;;;;;;;;;;;;17.79;65.39;101100.38;5090931;28;19968;-85
2023/05/19 01:26:13;;;;;;;;;;;;;;;17.76;65.40;101107.31;5093628;28;20457;-85
2023/05/19 01:28:57;;;;;;;;;;;;;;;17.76;65.38;101102.94;5091503;28;19916;-85
2023/05/19 01:31:23;;;;;;;;;;;;;;;17.77;65.48;101101.19;5091222;28;19958;-85
2023/05/19 01:33:48;;;;;;;;;;;;;;;17.77;65.32;101104.72;5071473;28;19963;-85
2023/05/19 01:36:14;;;;;;;;;;;;;;;17.78;65.35;101103.88;5069700;28;19924;-85
2023/05/19 01:38:39;;;;;;;;;;;;;;;17.76;65.22;101102.94;5076107;28;19919;-85
2023/05/19 01:41:05;;;;;;;;;;;;;;;17.72;65.25;101103.72;5075637;28;19916;-86
2023/05/19 01:43:30;;;;;;;;;;;;;;;17.72;65.25;101106.34;5090918;28;19924;-86
2023/05/19 01:45:57;;;;;;;;;;;;;;;17.73;65.33;101105.47;5075299;28;19912;-85
2023/05/19 01:48:22;;;;;;;;;;;;;;;17.69;65.21;101098.31;5074163;28;19920;-85
2023/05/19 01:50:48;;;;;;;;;;;;;;;17.74;65.17;101106.38;5074745;28;19920;-86
2023/05/19 01:53:13;;;;;;;;;;;;;;;17.69;65.09;101107.16;5093036;28;20328;-83
2023/05/19 01:55:43;;;;;;;;;;;;;;;17.76;65.24;101109.97;5090809;28;19955;-84
2023/05/19 01:58:20;;;;;;;;;;;;;;;17.76;65.18;101109.97;5092431;28;19974;-85
2023/05/19 02:00:45;;;;;;;;;;;;;;;17.76;65.12;101107.31;5071471;28;19954;-84
2023/05/19 02:03:20;;;;;;;;;;;;;;;17.73;65.25;101112.53;5090830;28;19924;-84
2023/05/19 02:05:52;;;;;;;;;;;;;;;17.77;64.98;101112.66;5089086;28;20400;-84
2023/05/19 02:08:26;;;;;;;;;;;;;;;17.75;65.26;101106.44;5093803;28;19919;-85
2023/05/19 02:10:57;;;;;;;;;;;;;;;17.73;65.05;101097.56;5073631;28;20373;-85
2023/05/19 02:13:23;;;;;;;;;;;;;;;17.75;65.06;101113.47;5075323;28;19974;-85
2023/05/19 02:15:48;;;;;;;;;;;;;;;17.82;64.92;101110.13;5070352;28;19916;-84
2023/05/19 02:18:16;;;;;;;;;;;;;;;17.73;65.03;101117.81;5075631;28;19918;-84
2023/05/19 02:20:42;;;;;;;;;;;;;;;17.72;65.10;101108.09;5071326;28;19923;-85
2023/05/19 02:23:07;;;;;;;;;;;;;;;17.73;65.06;101112.53;5064781;28;19920;-84
2023/05/19 02:25:33;;;;;;;;;;;;;;;17.74;64.96;101112.56;5049724;28;19973;-84
2023/05/19 02:27:58;;;;;;;;;;;;;;;17.73;64.78;101117.81;5086037;28;20430;-84
2023/05/19 02:30:24;;;;;;;;;;;;;;;17.75;64.86;101124.03;5091309;28;19920;-85
2023/05/19 02:32:49;;;;;;;;;;;;;;;17.69;65.15;101122.09;5092281;28;20015;-84
2023/05/19 02:35:15;;;;;;;;;;;;;;;17.71;64.76;101123.03;5071515;28;19930;-85
2023/05/19 02:37:40;;;;;;;;;;;;;;;17.81;64.60;101121.56;5073871;28;19920;-85
2023/05/19 02:40:06;;;;;;;;;;;;;;;17.76;64.82;101124.09;5070241;28;19916;-85
2023/05/19 02:42:32;;;;;;;;;;;;;;;17.77;64.79;101130.25;5075389;28;19920;-85
2023/05/19 02:44:58;;;;;;;;;;;;;;;17.78;64.49;101132.94;5074832;28;19919;-86
2023/05/19 02:47:24;;;;;;;;;;;;;;;17.84;64.44;101132.25;5073200;28;19927;-85
2023/05/19 02:49:49;;;;;;;;;;;;;;;17.81;64.43;101138.31;5092411;28;19916;-85
2023/05/19 02:52:15;;;;;;;;;;;;;;;17.78;64.66;101135.59;5071520;28;19920;-85
2023/05/19 02:54:40;;;;;;;;;;;;;;;17.78;64.38;101147.88;5071856;28;20652;-85
2023/05/19 02:57:06;;;;;;;;;;;;;;;17.76;64.40;101150.50;5073602;28;20309;-85
2023/05/19 02:59:31;;;;;;;;;;;;;;;17.79;64.28;101149.69;5091207;28;19946;-86
2023/05/19 03:02:00;;;;;;;;;;;;;;;17.74;64.57;101157.47;5069357;28;20419;-84
2023/05/19 03:04:26;;;;;;;;;;;;;;;17.76;64.55;101147.84;5089958;28;19920;-84
2023/05/19 03:06:52;;;;;;;;;;;;;;;17.75;64.56;101146.06;5091363;28;20400;-85
2023/05/19 03:09:18;;;;;;;;;;;;;;;17.74;64.61;101152.19;5074681;28;19999;-85
2023/05/19 03:11:43;;;;;;;;;;;;;;;17.78;64.45;101154.09;5073576;28;20003;-85
2023/05/19 03:14:09;;;;;;;;;;;;;;;17.78;64.56;101148.81;5074431;28;19943;-85
2023/05/19 03:16:34;;;;;;;;;;;;;;;17.78;64.33;101154.09;5073274;28;20373;-84
2023/05/19 03:19:00;;;;;;;;;;;;;;;17.73;64.53;101153.03;5092017;28;20412;-85
2023/05/19 03:21:25;;;;;;;;;;;;;;;17.74;64.37;101157.47;5058656;28;19916;-83
2023/05/19 03:23:50;;;;;;;;;;;;;;;17.73;64.39;101149.50;5073215;28;20435;-85
2023/05/19 03:26:16;;;;;;;;;;;;;;;17.72;64.27;101151.25;5090756;28;20499;-84
2023/05/19 03:28:41;;;;;;;;;;;;;;;17.71;64.24;101157.38;5072698;28;20335;-85
2023/05/19 03:31:07;;;;;;;;;;;;;;;17.72;64.25;101150.38;5090638;28;20005;-84
2023/05/19 03:33:32;;;;;;;;;;;;;;;17.75;64.44;101158.38;5074018;28;20292;-85
2023/05/19 03:35:58;;;;;;;;;;;;;;;17.68;64.35;101158.19;5090185;28;20377;-84
2023/05/19 03:38:23;;;;;;;;;;;;;;;17.74;64.33;101160.13;5073399;28;20042;-84
2023/05/19 03:40:49;;;;;;;;;;;;;;;17.76;64.32;101161.06;5073478;28;19942;-86
2023/05/19 03:43:15;;;;;;;;;;;;;;;17.79;64.06;101168.19;5054150;28;20409;-86
2023/05/19 03:45:40;;;;;;;;;;;;;;;17.77;64.33;101172.53;5072438;28;19916;-85
2023/05/19 03:48:06;;;;;;;;;;;;;;;17.72;64.37;101177.66;5070186;28;20011;-85
2023/05/19 03:50:32;;;;;;;;;;;;;;;17.72;64.41;101176.78;5049029;28;20361;-84
2023/05/19 03:52:58;;;;;;;;;;;;;;;17.74;64.41;101180.34;5033453;28;20386;-85
2023/05/19 03:55:24;;;;;;;;;;;;;;;17.71;64.42;101181.13;5033768;28;19917;-85
2023/05/19 03:57:51;;;;;;;;;;;;;;;17.69;64.41;101183.75;5042109;28;20310;-85
2023/05/19 04:00:17;;;;;;;;;;;;;;;17.72;64.57;101184.69;5041168;28;20512;-84
2023/05/19 04:02:42;;;;;;;;;;;;;;;17.73;64.32;101194.41;5062485;28;20806;-84
2023/05/19 04:05:08;;;;;;;;;;;;;;;17.69;64.63;101194.31;5040171;28;19916;-85
2023/05/19 04:07:33;;;;;;;;;;;;;;;17.73;64.41;101192.66;5053580;28;19926;-83
2023/05/19 04:09:59;;;;;;;;;;;;;;;17.69;64.43;101196.03;5069055;28;19939;-85
2023/05/19 04:12:24;;;;;;;;;;;;;;;17.69;64.54;101198.69;5040669;28;19917;-86
2023/05/19 04:14:50;;;;;;;;;;;;;;;17.66;64.60;101195.97;5037377;28;19925;-85
2023/05/19 04:17:15;;;;;;;;;;;;;;;17.66;64.54;101194.19;5067438;28;19920;-85
2023/05/19 04:19:41;;;;;;;;;;;;;;;17.70;64.40;101203.13;5030729;28;19994;-86
2023/05/19 04:22:07;;;;;;;;;;;;;;;17.69;64.63;101202.25;5059373;28;19916;-84
2023/05/19 04:24:32;;;;;;;;;;;;;;;17.71;64.27;101199.63;5038341;28;19963;-84
2023/05/19 04:27:01;;;;;;;;;;;;;;;17.68;64.62;101202.19;5040760;28;19917;-85
2023/05/19 04:29:28;;;;;;;;;;;;;;;17.73;64.39;101205.84;5037429;28;19917;-86
2023/05/19 04:31:54;;;;;;;;;;;;;;;17.73;64.40;101197.94;5064972;28;19916;-85
2023/05/19 04:34:20;;;;;;;;;;;;;;;17.78;64.25;101209.56;5026151;28;19920;-85
2023/05/19 04:36:46;;;;;;;;;;;;;;;17.72;64.54;101196.16;5028578;28;20377;-86
2023/05/19 04:39:13;;;;;;;;;;;;;;;17.72;64.49;101206.72;5057222;28;19917;-85
2023/05/19 04:41:39;;;;;;;;;;;;;;;17.77;64.45;101207.75;5032855;28;20321;-84
2023/05/19 04:44:08;;;;;;;;;;;;;;;17.77;64.52;101210.38;5061780;28;19921;-87
2023/05/19 04:46:33;;;;;;;;;;;;;;;17.76;64.56;101205.97;5056191;28;19923;-87
2023/05/19 04:49:00;;;;;;;;;;;;;;;17.76;64.56;101205.03;5067816;28;19916;-85
2023/05/19 04:51:30;;;;;;;;;;;;;;;17.76;64.44;101210.34;5063839;28;19920;-88
2023/05/19 04:53:56;;;;;;;;;;;;;;;17.74;64.75;101207.66;5058230;28;19916;-88
2023/05/19 04:56:21;;;;;;;;;;;;;;;17.78;64.64;101208.63;5090156;28;19943;-88
2023/05/19 04:58:47;;;;;;;;;;;;;;;17.76;64.87;101210.34;5042151;28;20288;-87
2023/05/19 05:01:14;;;;;;;;;;;;;;;17.78;64.82;101206.00;5086532;28;20391;-87
2023/05/19 05:03:40;;;;;;;;;;;;;;;17.79;64.92;101205.16;5079440;28;19920;-88
2023/05/19 05:06:05;;;;;;;;;;;;;;;17.86;64.99;101205.44;5088707;28;20497;-87
2023/05/19 05:08:31;;;;;;;;;;;;;;;17.79;65.23;101208.69;5084424;28;19927;-85
2023/05/19 05:10:57;;;;;;;;;;;;;;;17.77;65.40;101205.09;5077129;28;20007;-87
2023/05/19 05:13:22;;;;;;;;;;;;;;;17.77;65.15;101209.50;5078372;28;19976;-89
2023/05/19 05:15:53;;;;;;;;;;;;;;;17.86;64.96;101205.44;5046879;28;19916;-88
2023/05/19 05:18:18;;;;;;;;;;;;;;;17.94;64.39;101203.03;5054393;28;19916;-88
2023/05/19 05:20:45;;;;;;;;;;;;;;;17.74;64.45;101218.22;5066087;28;19973;-90
2023/05/19 05:23:13;;;;;;;;;;;;;;;17.91;63.23;101218.81;5059578;28;19931;-87
2023/05/19 05:25:42;;;;;;;;;;;;;;;17.94;61.90;101205.66;5071212;28;19916;-89
2023/05/19 05:28:07;;;;;;;;;;;;;;;18.06;62.73;101226.31;5064273;28;19927;-87
2023/05/19 05:30:33;;;;;;;;;;;;;;;18.05;61.35;101228.03;5057439;28;19916;-88
2023/05/19 05:32:59;;;;;;;;;;;;;;;18.09;60.74;101224.63;5084929;28;19924;-88
2023/05/19 05:35:24;;;;;;;;;;;;;;;18.06;60.75;101227.19;5051933;28;19942;-87
2023/05/19 05:37:50;;;;;;;;;;;;;;;18.09;60.88;101227.28;5083912;28;20023;-90
2023/05/19 05:40:15;;;;;;;;;;;;;;;18.20;60.56;101219.69;5075866;28;19916;-89
2023/05/19 05:42:41;;;;;;;;;;;;;;;18.13;60.81;101220.34;5057679;28;19930;-87
2023/05/19 05:45:06;;;;;;;;;;;;;;;18.14;60.88;101226.53;5074559;28;19916;-90
2023/05/19 05:47:32;;;;;;;;;;;;;;;18.23;60.80;101216.25;5073764;28;19916;-87
2023/05/19 05:49:58;;;;;;;;;;;;;;;18.15;60.58;101215.13;5070041;28;20296;-86
2023/05/19 05:52:24;;;;;;;;;;;;;;;18.16;60.66;101208.97;5065393;28;19978;-85
2023/05/19 05:54:50;;;;;;;;;;;;;;;18.20;60.72;101217.06;5055481;28;20355;-85
2023/05/19 05:57:15;;;;;;;;;;;;;;;18.09;61.26;101207.88;5082270;28;19916;-86
2023/05/19 05:59:41;;;;;;;;;;;;;;;18.14;60.73;101215.94;5086295;28;19920;-85
2023/05/19 06:02:07;;;;;;;;;;;;;;;18.17;60.69;101221.34;5086767;28;19916;-87
2023/05/19 06:04:32;;;;;;;;;;;;;;;18.19;60.67;101220.53;5094149;28;20025;-91
2023/05/19 06:07:00;;;;;;;;;;;;;;;18.18;60.66;101209.91;5074783;28;19959;-90
2023/05/19 06:09:29;;;;;;;;;;;;;;;18.15;60.88;101208.06;5059096;28;19923;-89
2023/05/19 06:11:54;;;;;;;;;;;;;;;18.16;60.99;101215.16;5092341;28;19916;-90
2023/05/19 06:14:20;;;;;;;;;;;;;;;18.32;60.35;101227.09;5092800;28;19916;-89
2023/05/19 06:16:46;;;;;;;;;;;;;;;18.16;61.08;101223.09;5065548;28;20375;-91
2023/05/19 06:19:12;;;;;;;;;;;;;;;18.29;60.87;101227.00;5053507;28;19920;-82
2023/05/19 06:21:38;;;;;;;;;;;;;;;18.48;60.40;101225.81;5085697;28;20050;-87
2023/05/19 06:24:04;;;;;;;;;;;;;;;18.49;59.62;101225.81;5088851;28;19927;-92
2023/05/19 06:26:33;;;;;;;;;;;;;;;18.57;59.18;101228.69;5069727;28;19916;-83
2023/05/19 06:29:01;;;;;;;;;;;;;;;18.41;58.83;101243.22;5067696;28;19916;-92
2023/05/19 06:31:32;;;;;;;;;;;;;;;18.54;58.37;101235.63;5087477;28;19921;-92
2023/05/19 06:34:27;;;;;;;;;;;;;;;18.63;57.90;101242.09;5071592;28;19923;-92
2023/05/19 06:39:59;;;;;;;;;;;;;;;18.53;57.94;101250.63;5090450;28;20376;-95
2023/05/19 06:42:24;;;;;;;;;;;;;;;18.69;57.43;101252.88;5086884;28;19939;-93
2023/05/19 06:44:50;;;;;;;;;;;;;;;18.75;57.13;101264.47;5074528;28;20401;-89
2023/05/19 06:47:17;;;;;;;;;;;;;;;18.73;56.99;101267.06;5094237;28;19922;-89
2023/05/19 06:49:43;;;;;;;;;;;;;;;18.82;56.82;101269.13;5086373;28;19923;-90
2023/05/19 06:52:08;;;;;;;;;;;;;;;18.63;56.99;101265.91;5065015;28;19924;-89
2023/05/19 06:54:34;;;;;;;;;;;;;;;18.73;56.63;101267.06;5097755;27;19916;-89
2023/05/19 06:56:59;;;;;;;;;;;;;;;18.76;56.61;101268.91;5056770;28;19923;-92
2023/05/19 06:59:25;;;;;;;;;;;;;;;18.66;57.00;101271.28;5084680;28;20381;-86
2023/05/19 07:01:50;;;;;;;;;;;;;;;18.59;57.02;101273.72;5068883;28;19916;-87
2023/05/19 07:04:16;;;;;;;;;;;;;;;18.86;56.17;101269.25;5069814;28;21006;-88
2023/05/19 07:06:41;;;;;;;;;;;;;;;18.81;56.22;101275.25;5090285;28;19922;-88
2023/05/19 07:09:07;;;;;;;;;;;;;;;18.78;56.10;101278.72;5055319;28;19916;-87
2023/05/19 07:11:33;;;;;;;;;;;;;;;18.77;56.38;101276.88;5087769;28;20458;-84
2023/05/19 07:13:58;;;;;;;;;;;;;;;18.71;56.14;101269.69;5091081;28;19970;-84
2023/05/19 07:16:24;;;;;;;;;;;;;;;18.77;56.39;101268.03;5087140;28;19927;-88
2023/05/19 07:18:49;;;;;;;;;;;;;;;18.77;56.42;101275.97;5086470;28;20013;-89
2023/05/19 07:21:15;;;;;;;;;;;;;;;18.80;56.21;101270.84;5085362;28;19916;-88
2023/05/19 07:23:40;;;;;;;;;;;;;;;18.73;56.29;101267.06;5078574;28;19927;-87
2023/05/19 07:26:06;;;;;;;;;;;;;;;18.75;56.12;101270.63;5088480;28;20376;-88
2023/05/19 07:28:33;;;;;;;;;;;;;;;18.67;57.22;101278.38;5082991;28;19920;-84
2023/05/19 07:30:58;;;;;;;;;;;;;;;18.70;58.78;101290.78;5063094;28;19920;-82
2023/05/19 07:33:25;;;;;;;;;;;;;;;18.69;58.83;101294.31;5089519;28;20011;-84
2023/05/19 07:35:51;;;;;;;;;;;;;;;18.85;57.81;101290.38;5090037;28;19927;-87
2023/05/19 07:38:22;;;;;;;;;;;;;;;18.87;57.13;101281.63;5081286;28;19920;-88
2023/05/19 07:40:48;;;;;;;;;;;;;;;18.87;56.58;101286.03;5089091;28;20026;-88
2023/05/19 07:43:14;;;;;;;;;;;;;;;18.91;56.39;101290.53;5054146;28;19920;-86
2023/05/19 07:45:40;;;;;;;;;;;;;;;18.99;55.83;101299.59;5088059;28;19916;-86
2023/05/19 07:48:06;;;;;;;;;;;;;;;19.08;55.63;101296.31;5087764;28;19920;-87
2023/05/19 07:50:32;;;;;;;;;;;;;;;19.01;55.64;101302.31;5089470;28;20363;-86
2023/05/19 07:52:57;;;;;;;;;;;;;;;19.01;55.53;101305.84;5072621;28;19974;-86
2023/05/19 07:55:23;;;;;;;;;;;;;;;18.99;55.73;101302.25;5090152;28;19924;-88
2023/05/19 07:57:49;;;;;;;;;;;;;;;19.05;55.14;101301.50;5087279;28;20071;-88
2023/05/19 08:00:15;;;;;;;;;;;;;;;19.14;54.98;101299.13;5082712;28;19959;-88
2023/05/19 08:02:40;;;;;;;;;;;;;;;19.00;54.96;101306.66;5073785;28;20313;-90
2023/05/19 08:05:08;;;;;;;;;;;;;;;19.03;55.29;101304.13;5087025;28;19916;-89
2023/05/19 08:07:33;;;;;;;;;;;;;;;19.10;54.88;101305.19;5090815;28;19920;-90
2023/05/19 08:09:59;;;;;;;;;;;;;;;19.10;54.98;101295.50;5056081;28;19916;-89
2023/05/19 08:12:24;;;;;;;;;;;;;;;19.13;54.89;101299.97;5074618;28;20308;-90
2023/05/19 08:14:50;;;;;;;;;;;;;;;19.12;54.94;101308.78;5074799;28;19965;-90
2023/05/19 08:17:15;;;;;;;;;;;;;;;19.15;54.94;101302.66;5074447;28;20338;-90
2023/05/19 08:19:40;;;;;;;;;;;;;;;19.06;54.87;101296.25;5092766;28;19923;-92
2023/05/19 08:22:06;;;;;;;;;;;;;;;19.02;55.15;101304.97;5041061;28;20375;-92
2023/05/19 08:24:38;;;;;;;;;;;;;;;19.06;55.04;101309.50;5074606;28;20370;-92
2023/05/19 08:27:05;;;;;;;;;;;;;;;19.08;55.08;101307.78;5057532;28;19959;-89
2023/05/19 08:29:32;;;;;;;;;;;;;;;19.16;54.63;101315.97;5072484;28;19918;-88
2023/05/19 08:31:57;;;;;;;;;;;;;;;19.12;54.66;101320.25;5072738;28;19948;-89
2023/05/19 08:34:23;;;;;;;;;;;;;;;19.28;54.55;101325.97;5069087;28;19974;-87
2023/05/19 08:36:48;;;;;;;;;;;;;;;19.26;54.48;101325.94;5088285;28;19923;-88
2023/05/19 08:39:16;;;;;;;;;;;;;;;19.17;54.93;101340.66;5063917;28;20333;-88
2023/05/19 08:41:41;;;;;;;;;;;;;;;19.16;54.86;101334.50;5071202;28;19916;-87
2023/05/19 08:44:07;;;;;;;;;;;;;;;19.16;54.95;101344.19;5072203;28;20636;-88
2023/05/19 08:46:32;;;;;;;;;;;;;;;19.21;54.64;101351.38;5055513;28;19939;-89
2023/05/19 08:48:58;;;;;;;;;;;;;;;19.25;54.45;101352.38;5055504;28;19974;-86
2023/05/19 08:51:37;;;;;;;;;;;;;;;19.40;54.25;101358.09;5058298;28;19924;-86
2023/05/19 08:54:13;;;;;;;;;;;;;;;19.37;53.96;101363.31;5060526;28;19979;-87
2023/05/19 08:56:38;;;;;;;;;;;;;;;19.23;54.13;101354.09;5069848;28;19913;-87
2023/05/19 08:59:05;;;;;;;;;;;;;;;19.36;53.95;101356.22;5072326;28;19912;-88
2023/05/19 09:01:30;;;;;;;;;;;;;;;19.35;54.07;101357.09;5059027;28;19947;-85
2023/05/19 09:03:56;;;;;;;;;;;;;;;19.33;53.73;101354.38;5058891;28;19952;-86
2023/05/19 09:06:22;;;;;;;;;;;;;;;19.31;54.07;101357.84;5085246;28;20420;-86
2023/05/19 09:08:47;;;;;;;;;;;;;;;19.23;54.33;101354.97;5071931;28;19912;-86
2023/05/19 09:11:13;;;;;;;;;;;;;;;19.42;53.81;101350.19;5072103;28;20473;-86
2023/05/19 09:13:38;;;;;;;;;;;;;;;19.39;54.04;101345.72;5075634;28;20006;-89
2023/05/19 09:16:04;;;;;;;;;;;;;;;19.39;54.15;101340.41;5076061;28;19912;-88
2023/05/19 09:18:30;;;;;;;;;;;;;;;19.31;54.61;101353.44;5075302;28;19968;-88
2023/05/19 09:20:59;;;;;;;;;;;;;;;19.46;53.86;101345.00;5075186;28;20015;-88
2023/05/19 09:23:28;;;;;;;;;;;;;;;19.39;54.00;101342.16;5071798;28;20389;-87
2023/05/19 09:25:54;;;;;;;;;;;;;;;19.37;54.06;101349.16;5076041;28;19955;-87
2023/05/19 09:28:24;;;;;;;;;;;;;;;19.43;54.19;101341.38;5065824;28;19970;-87
2023/05/19 09:30:57;;;;;;;;;;;;;;;19.42;53.95;101350.19;5055386;28;19916;-87
2023/05/19 09:33:22;;;;;;;;;;;;;;;19.50;53.71;101346.91;5093640;28;19965;-86
2023/05/19 09:35:48;;;;;;;;;;;;;;;19.48;53.73;101348.59;5090701;28;19924;-87
2023/05/19 09:38:17;;;;;;;;;;;;;;;19.48;53.80;101342.41;5076355;28;20411;-87
2023/05/19 09:40:42;;;;;;;;;;;;;;;19.53;53.80;101340.78;5076408;28;20014;-88
2023/05/19 09:43:08;;;;;;;;;;;;;;;19.52;53.72;101347.84;5071816;28;20065;-88
2023/05/19 09:45:35;;;;;;;;;;;;;;;19.59;53.37;101343.59;5071968;28;20002;-88
2023/05/19 09:48:04;;;;;;;;;;;;;;;19.49;53.48;101338.91;5073241;28;19920;-86
2023/05/19 09:50:29;;;;;;;;;;;;;;;19.57;54.09;101339.13;5075808;28;19931;-88
2023/05/19 09:52:55;;;;;;;;;;;;;;;19.49;53.69;101334.53;5075727;28;19912;-88
2023/05/19 09:55:21;;;;;;;;;;;;;;;19.50;53.84;101331.00;5076104;28;20003;-88
2023/05/19 09:57:47;;;;;;;;;;;;;;;19.60;53.68;101337.44;5074866;28;19950;-88
2023/05/19 10:00:18;;;;;;;;;;;;;;;19.53;53.78;101333.72;5076593;28;19955;-89
2023/05/19 10:02:44;;;;;;;;;;;;;;;19.67;53.40;101335.84;5072256;28;19926;-89
2023/05/19 10:05:12;;;;;;;;;;;;;;;19.62;54.13;101335.75;5076805;28;19913;-89
2023/05/19 10:07:39;;;;;;;;;;;;;;;19.48;54.21;101331.81;5091301;28;19920;-88
2023/05/19 10:10:07;;;;;;;;;;;;;;;19.57;53.76;101328.50;5064980;28;19916;-89
2023/05/19 10:12:32;;;;;;;;;;;;;;;19.58;53.84;101330.28;5065881;28;19920;-89
2023/05/19 10:14:58;;;;;;;;;;;;;;;19.65;53.75;101332.25;5082801;28;19966;-89
2023/05/19 10:17:23;;;;;;;;;;;;;;;19.63;53.60;101340.16;5086810;28;19925;-89
2023/05/19 10:19:49;;;;;;;;;;;;;;;19.57;53.99;101345.28;5076302;28;19970;-87
2023/05/19 10:22:15;;;;;;;;;;;;;;;19.60;53.76;101333.88;5075018;28;19912;-88
2023/05/19 10:24:41;;;;;;;;;;;;;;;19.71;53.58;101336.00;5075246;28;19965;-87
2023/05/19 10:27:07;;;;;;;;;;;;;;;19.73;53.51;101336.94;5075547;28;20330;-89
2023/05/19 10:29:40;;;;;;;;;;;;;;;19.87;53.01;101326.66;5075774;28;19923;-89
2023/05/19 10:32:07;;;;;;;;;;;;;;;19.70;53.85;101338.59;5074458;28;19916;-88
2023/05/19 10:34:50;;;;;;;;;;;;;;;19.66;53.63;101331.38;5075025;28;19920;-89
2023/05/19 10:37:29;;;;;;;;;;;;;;;19.80;53.10;101337.97;5076182;28;20057;-88
2023/05/19 10:39:54;;;;;;;;;;;;;;;19.88;52.72;101333.78;5090388;28;20006;-88
2023/05/19 10:42:25;;;;;;;;;;;;;;;19.81;52.96;101337.13;5076217;28;20054;-89
2023/05/19 10:45:02;;;;;;;;;;;;;;;19.84;53.12;101338.97;5075590;28;19994;-89
2023/05/19 10:47:28;;;;;;;;;;;;;;;19.85;52.78;101336.31;5093474;28;19961;-88
2023/05/19 10:49:54;;;;;;;;;;;;;;;19.89;52.63;101339.97;5058391;28;20007;-88
2023/05/19 10:52:20;;;;;;;;;;;;;;;19.88;52.49;101344.38;5082954;28;20384;-89
2023/05/19 10:54:46;;;;;;;;;;;;;;;19.94;52.38;101341.00;5075449;28;19912;-88
2023/05/19 10:57:17;;;;;;;;;;;;;;;19.97;52.46;101338.41;5047627;28;20073;-88
2023/05/19 10:59:45;;;;;;;;;;;;;;;19.96;52.36;101344.56;5069789;28;20385;-89
2023/05/19 11:02:31;;;;;;;;;;;;;;;20.07;52.25;101350.16;5071813;28;20305;-89
2023/05/19 11:04:57;;;;;;;;;;;;;;;20.00;52.08;101348.19;5081115;28;19976;-90
2023/05/19 11:07:23;;;;;;;;;;;;;;;20.04;52.36;101345.63;5075713;28;19963;-89
2023/05/19 11:09:53;;;;;;;;;;;;;;;19.97;52.21;101343.69;5075378;28;19912;-88
2023/05/19 11:12:21;;;;;;;;;;;;;;;19.98;52.37;101353.47;5060475;28;19916;-88
2023/05/19 11:14:47;;;;;;;;;;;;;;;19.98;52.19;101348.16;5064224;28;20498;-87
2023/05/19 11:17:13;;;;;;;;;;;;;;;19.97;52.25;101358.72;5072657;28;20015;-89
2023/05/19 11:19:40;;;;;;;;;;;;;;;19.95;52.30;101349.84;5063145;28;19916;-87
2023/05/19 11:22:12;;;;;;;;;;;;;;;20.02;52.10;101349.13;5073690;28;19912;-88
2023/05/19 11:24:52;;;;;;;;;;;;;;;20.08;51.98;101350.16;5073265;28;19920;-88
2023/05/19 11:27:23;;;;;;;;;;;;;;;20.04;52.03;101355.34;5057222;28;19919;-88
2023/05/19 11:29:50;;;;;;;;;;;;;;;20.02;52.32;101357.06;5090815;28;19912;-87
2023/05/19 11:32:17;;;;;;;;;;;;;;;20.07;51.93;101347.50;5091166;28;20393;-87
2023/05/19 11:34:45;;;;;;;;;;;;;;;20.02;52.09;101355.31;5062242;28;20011;-87
2023/05/19 11:37:10;;;;;;;;;;;;;;;20.07;51.92;101345.72;5087481;28;19977;-87
2023/05/19 11:39:36;;;;;;;;;;;;;;;20.05;52.02;101350.09;5061972;28;19939;-87
2023/05/19 11:42:01;;;;;;;;;;;;;;;20.14;51.75;101338.81;5069904;28;19921;-86
2023/05/19 11:44:27;;;;;;;;;;;;;;;20.22;51.52;101341.66;5088524;28;19920;-86
2023/05/19 11:46:52;;;;;;;;;;;;;;;20.09;51.77;101340.47;5068561;28;19958;-86
2023/05/19 11:49:18;;;;;;;;;;;;;;;20.22;51.36;101341.66;5072616;28;20385;-87
2023/05/19 11:51:44;;;;;;;;;;;;;;;20.17;51.36;101344.22;5090380;28;19920;-88
2023/05/19 11:54:11;;;;;;;;;;;;;;;20.23;51.34;101338.13;5066595;28;20364;-88
2023/05/19 11:56:40;;;;;;;;;;;;;;;20.19;51.40;101339.81;5076376;28;20325;-86
2023/05/19 11:59:06;;;;;;;;;;;;;;;20.15;51.51;101337.97;5072690;28;19920;-87
2023/05/19 12:01:32;;;;;;;;;;;;;;;20.28;51.50;101329.44;5048316;28;19943;-88
2023/05/19 12:03:57;;;;;;;;;;;;;;;20.21;51.49;101337.19;5067896;28;19920;-90
2023/05/19 12:06:24;;;;;;;;;;;;;;;20.17;51.44;101333.59;5055073;28;20022;-85
2023/05/19 12:08:51;;;;;;;;;;;;;;;20.27;51.18;101338.22;5070438;28;19917;-88
2023/05/19 12:11:16;;;;;;;;;;;;;;;20.25;51.12;101331.09;5056707;28;19959;-86
2023/05/19 12:13:41;;;;;;;;;;;;;;;20.29;51.24;101332.97;5066252;28;19955;-87
2023/05/19 12:16:07;;;;;;;;;;;;;;;20.39;50.84;101332.31;5089252;28;19916;-87
2023/05/19 12:18:37;;;;;;;;;;;;;;;20.40;50.92;101334.09;5069965;28;20608;-87
2023/05/19 12:21:03;;;;;;;;;;;;;;;20.36;51.14;101334.88;5070132;28;19920;-86
2023/05/19 12:23:31;;;;;;;;;;;;;;;20.40;50.99;101334.09;5048061;28;20336;-87
2023/05/19 12:25:57;;;;;;;;;;;;;;;20.44;50.92;101335.09;5082884;28;19916;-87
2023/05/19 12:28:23;;;;;;;;;;;;;;;20.35;51.01;101330.47;5071309;28;19924;-86
2023/05/19 12:30:50;;;;;;;;;;;;;;;20.31;51.06;101326.84;5088931;28;19919;-87
2023/05/19 12:33:16;;;;;;;;;;;;;;;20.33;51.00;101327.78;5073385;28;19912;-86
2023/05/19 12:35:41;;;;;;;;;;;;;;;20.34;51.04;101328.69;5091104;28;20485;-87